Flight Track Log - Related Links

Times and Time Zones

All times are in EDT time to prevent confusion due to time zone crossing. See the TCF3516 flight status page for this flight to view local times or setup timezone preferences in your user account.

Time Position Orientation Groundspeed Altitude Reporting Facility
EDT Latitude Longitude Course Direction KTS MPH feet Rate Location/Type
Tue 06:58:59 AM 29.9761 -90.2539 53° Northeast 157 181 700  Level Houston Center
Tue 06:59:11 AM 29.9658 -90.2567 193° South 156 180 1,400 1,971 Climbing Houston Center
Tue 07:00:09 AM 29.9283 -90.2514 173° South 215 247 3,000 1,770 Climbing Houston Center
Tue 07:00:12 AM 29.9256 -90.2439 113° Southeast 189 217 3,200 2,300 Climbing Houston Center
Tue 07:01:09 AM 29.9567 -90.1908 56° Northeast 244 281 5,300 2,695 Climbing Houston Center
Tue 07:02:00 AM 30.3158 -89.8667 52° Northeast  Level Estimated
Tue 07:02:10 AM 30.0264 -90.1436 30° Northeast 279 321 8,500  Level Houston Center
Tue 07:03:00 AM 30.3963 -89.7682 60° Northeast  Level Estimated
Tue 07:03:10 AM 30.0997 -90.0906 32° Northeast 301 346 10,900  Level Houston Center
Tue 07:04:00 AM 30.4767 -89.6696 53° Northeast  Level Estimated
Tue 07:04:10 AM 30.1867 -90.0286 32° Northeast 358 412 13,000  Level Houston Center
Tue 07:05:11 AM 30.2750 -89.9672 31° Northeast 369 425 14,900 942 Climbing Houston Center
Tue 07:06:11 AM 30.3403 -89.8706 52° Northeast 379 436 14,900  Level Houston Center
Tue 07:07:12 AM 30.4031 -89.7614 56° Northeast 383 441 14,900  Level Houston Center
Tue 07:08:12 AM 30.4589 -89.6572 58° Northeast 379 436 14,900 893 Level Houston Center
Tue 07:09:13 AM 30.5169 -89.5522 57° Northeast 382 440 16,700 2,016 Climbing Houston Center
Tue 07:10:14 AM 30.5767 -89.4431 58° Northeast 397 457 19,000 1,983 Climbing Houston Center
Tue 07:11:14 AM 30.6378 -89.3325 57° Northeast 405 466 20,700 1,587 Climbing Houston Center
Tue 07:12:15 AM 30.6992 -89.2150 59° Northeast 423 487 22,200 1,438 Climbing Houston Center
Tue 07:13:15 AM 30.7653 -89.0947 57° Northeast 439 505 23,600 1,388 Climbing Houston Center
Tue 07:14:16 AM 30.8322 -88.9714 58° Northeast 450 518 25,000 1,377 Climbing Houston Center
Tue 07:15:17 AM 30.9019 -88.8417 58° Northeast 459 528 26,400 1,240 Climbing Houston Center
Tue 07:16:17 AM 30.9719 -88.7133 58° Northeast 467 537 27,500 992 Climbing Houston Center
Tue 07:17:18 AM 31.0403 -88.5856 58° Northeast 479 551 28,400 1,033 Climbing Houston Center
Tue 07:18:19 AM 31.1119 -88.4533 58° Northeast 484 557 29,600 1,190 Climbing Houston Center
Tue 07:19:19 AM 31.1833 -88.3183 58° Northeast 497 572 30,800 1,240 Climbing Houston Center
Tue 07:20:20 AM 31.2631 -88.1742 57° Northeast 490 564 32,100 1,180 Climbing Houston Center
Tue 07:21:21 AM 31.3342 -88.0383 58° Northeast 488 562 33,200 1,131 Climbing Houston Center
Tue 07:22:22 AM 31.4050 -87.9039 58° Northeast 485 558 34,400 893 Climbing Houston Center
Tue 07:23:22 AM 31.4742 -87.7708 59° Northeast 479 551 35,000 298 Climbing Houston Center
Tue 07:24:23 AM 31.5447 -87.6372 58° Northeast 481 554 35,000  Level Houston Center
Tue 07:25:24 AM 31.6147 -87.5047 58° Northeast 479 551 35,000  Level Houston Center
Tue 07:26:09 AM 31.6739 -87.3989 57° Northeast 477 549 35,000  Level Atlanta Center
Tue 07:27:09 AM 31.7333 -87.2767 60° Northeast 477 549 35,000  Level Atlanta Center
Tue 07:28:09 AM 31.8036 -87.1447 58° Northeast 477 549 35,000  Level Atlanta Center
Tue 07:29:09 AM 31.8694 -87.0125 60° Northeast 477 549 35,000  Level Atlanta Center
Tue 07:30:09 AM 31.9394 -86.8778 58° Northeast 477 549 35,000  Level Atlanta Center
Tue 07:31:09 AM 32.0072 -86.7428 59° Northeast 477 549 35,000  Level Atlanta Center
Tue 07:32:09 AM 32.0897 -86.5958 56° Northeast 485 558 35,000  Level Atlanta Center
Tue 07:33:09 AM 32.1592 -86.4603 59° Northeast 485 558 35,000  Level Atlanta Center
Tue 07:34:09 AM 32.2178 -86.3417 60° Northeast 480 552 35,000  Level Atlanta Center
Tue 07:35:09 AM 32.3039 -86.1964 55° Northeast 480 552 35,000  Level Atlanta Center
Tue 07:36:09 AM 32.3853 -86.0778 51° Northeast 480 552 35,000  Level Atlanta Center
Tue 07:37:09 AM 32.4706 -85.9519 51° Northeast 474 545 35,000  Level Atlanta Center
Tue 07:38:09 AM 32.5539 -85.8256 52° Northeast 486 559 35,000  Level Atlanta Center
Tue 07:39:09 AM 32.6369 -85.7039 51° Northeast 486 559 35,000  Level Atlanta Center
Tue 07:40:09 AM 32.7200 -85.5769 52° Northeast 481 554 35,000  Level Atlanta Center
Tue 07:41:09 AM 32.8031 -85.4525 52° Northeast 481 554 35,000  Level Atlanta Center
Tue 07:42:09 AM 32.8858 -85.3300 51° Northeast 476 548 35,000  Level Atlanta Center
Tue 07:43:09 AM 32.9683 -85.2050 52° Northeast 481 554 35,000  Level Atlanta Center
Tue 07:44:09 AM 33.0508 -85.0872 50° Northeast 473 544 35,000  Level Atlanta Center
Tue 07:45:09 AM 33.1311 -84.9592 53° Northeast 473 544 35,000  Level Atlanta Center
Tue 07:46:09 AM 33.2136 -84.8358 51° Northeast 473 544 35,000  Level Atlanta Center
Tue 07:47:09 AM 33.2936 -84.7097 53° Northeast 478 550 35,000  Level Atlanta Center
Tue 07:48:09 AM 33.3756 -84.5836 52° Northeast 478 550 35,000  Level Atlanta Center
Tue 07:49:09 AM 33.4575 -84.4572 52° Northeast 484 557 35,000  Level Atlanta Center
Tue 07:50:09 AM 33.5372 -84.3281 53° Northeast 484 557 35,000  Level Atlanta Center
Tue 07:51:09 AM 33.6189 -84.2058 51° Northeast 477 549 35,000  Level Atlanta Center
Tue 07:52:09 AM 33.6983 -84.0739 54° Northeast 477 549 35,000  Level Atlanta Center
Tue 07:53:09 AM 33.7817 -83.9464 52° Northeast 477 549 35,000  Level Atlanta Center
Tue 07:54:09 AM 33.8608 -83.8211 53° Northeast 482 555 35,000  Level Atlanta Center
Tue 07:55:09 AM 33.9442 -83.6933 52° Northeast 482 555 35,000  Level Atlanta Center
Tue 07:56:09 AM 34.0147 -83.5803 53° Northeast 482 555 35,000  Level Atlanta Center
Tue 07:57:09 AM 34.0956 -83.4517 53° Northeast 482 555 35,000  Level Atlanta Center
Tue 07:58:09 AM 34.1761 -83.3231 53° Northeast 482 555 35,000  Level Atlanta Center
Tue 07:59:09 AM 34.2547 -83.1944 53° Northeast 482 555 35,000  Level Atlanta Center
Tue 08:00:09 AM 34.3350 -83.0653 53° Northeast 482 555 35,000  Level Atlanta Center
Tue 08:01:09 AM 34.4114 -82.9386 54° Northeast 482 555 35,000  Level Atlanta Center
Tue 08:02:09 AM 34.4914 -82.8114 53° Northeast 477 549 35,000  Level Atlanta Center
Tue 08:03:09 AM 34.5714 -82.6817 53° Northeast 477 549 35,000  Level Atlanta Center
Tue 08:04:09 AM 34.6575 -82.5464 52° Northeast 467 537 35,000  Level Atlanta Center
Tue 08:05:09 AM 34.7331 -82.4211 54° Northeast 461 531 35,000  Level Atlanta Center
Tue 08:06:09 AM 34.8128 -82.2931 53° Northeast 461 531 35,000  Level Atlanta Center
Tue 08:07:09 AM 34.8881 -82.1675 54° Northeast 461 531 35,000  Level Atlanta Center
Tue 08:08:09 AM 34.9594 -82.0544 52° Northeast 461 531 35,000  Level Atlanta Center
Tue 08:09:09 AM 35.0447 -81.9206 52° Northeast 461 531 35,000  Level Atlanta Center
Tue 08:10:09 AM 35.1242 -81.7989 51° Northeast 461 531 35,000  Level Atlanta Center
Tue 08:11:09 AM 35.2031 -81.6722 53° Northeast 467 537 35,000  Level Atlanta Center
Tue 08:12:09 AM 35.2800 -81.5506 52° Northeast 462 532 35,000  Level Atlanta Center
Tue 08:13:09 AM 35.3586 -81.4233 53° Northeast 462 532 35,000  Level Atlanta Center
Tue 08:14:09 AM 35.4353 -81.2986 53° Northeast 462 532 35,000  Level Atlanta Center
Tue 08:15:09 AM 35.4997 -81.1969 52° Northeast 462 532 35,000  Level Atlanta Center
Tue 08:16:09 AM 35.5942 -81.0431 53° Northeast 473 544 35,000  Level Atlanta Center
Tue 08:17:09 AM 35.6744 -80.9200 51° Northeast 462 532 35,000  Level Atlanta Center
Tue 08:18:09 AM 35.7528 -80.7992 51° Northeast 457 526 35,000  Level Atlanta Center
Tue 08:19:09 AM 35.8286 -80.6758 53° Northeast 451 519 35,000  Level Atlanta Center
Tue 08:20:58 AM 35.9564 -80.4675 53° Northeast 446 513 35,000  Level Washington Center
Tue 08:21:58 AM 36.0325 -80.3439 53° Northeast 447 514 35,000  Level Washington Center
Tue 08:22:56 AM 36.1083 -80.2172 53° Northeast 447 514 35,000  Level Washington Center
Tue 08:23:56 AM 36.1925 -80.0883 51° Northeast 447 514 35,000  Level Washington Center
Tue 08:24:58 AM 36.2703 -79.9639 52° Northeast 439 505 35,000  Level Washington Center
Tue 08:25:56 AM 36.3456 -79.8392 53° Northeast 444 511 35,000  Level Washington Center
Tue 08:26:56 AM 36.4103 -79.7242 55° Northeast 449 517 35,000  Level Washington Center
Tue 08:27:57 AM 36.4875 -79.5989 52° Northeast 454 522 35,000  Level Washington Center
Tue 08:28:57 AM 36.5692 -79.4608 54° Northeast 453 521 35,000  Level Washington Center
Tue 08:29:57 AM 36.6464 -79.3328 53° Northeast 448 516 35,000  Level Washington Center
Tue 08:30:58 AM 36.7211 -79.2094 53° Northeast 448 516 35,000  Level Washington Center
Tue 08:31:57 AM 36.7958 -79.0831 54° Northeast 448 516 35,000  Level Washington Center
Tue 08:32:57 AM 36.8639 -78.9667 54° Northeast 448 516 35,000  Level Washington Center
Tue 08:33:56 AM 36.9403 -78.8403 53° Northeast 448 516 35,000  Level Washington Center
Tue 08:34:57 AM 37.0147 -78.7133 54° Northeast 448 516 35,000  Level Washington Center
Tue 08:35:57 AM 37.0994 -78.5736 53° Northeast 448 516 35,000  Level Washington Center
Tue 08:36:58 AM 37.1736 -78.4433 54° Northeast 448 516 35,000  Level Washington Center
Tue 08:37:58 AM 37.2536 -78.3211 51° Northeast 448 516 35,000  Level Washington Center
Tue 08:38:55 AM 37.3392 -78.2328 39° Northeast 443 510 35,000  Level Washington Center
Tue 08:39:56 AM 37.4289 -78.1364 40° Northeast 437 503 35,000  Level Washington Center
Tue 08:40:56 AM 37.5247 -78.0350 40° Northeast 432 497 35,000  Level Washington Center
Tue 08:41:58 AM 37.6164 -77.9356 41° Northeast 432 497 35,000  Level Washington Center
Tue 08:42:58 AM 37.7081 -77.8389 40° Northeast 432 497 35,000  Level Washington Center
Tue 08:43:57 AM 37.8017 -77.7392 40° Northeast 437 503 35,000  Level Washington Center
Tue 08:44:58 AM 37.8950 -77.6392 40° Northeast 437 503 35,000  Level Washington Center
Tue 08:45:56 AM 37.9844 -77.5386 42° Northeast 437 503 35,000  Level Washington Center
Tue 08:46:56 AM 38.0842 -77.4306 40° Northeast 437 503 35,000  Level Washington Center
Tue 08:47:57 AM 38.1753 -77.3322 40° Northeast 437 503 35,000  Level Washington Center
Tue 08:48:58 AM 38.2664 -77.2314 41° Northeast 437 503 35,000  Level Washington Center
Tue 08:49:58 AM 38.3572 -77.1328 40° Northeast 437 503 35,000  Level Washington Center
Tue 08:50:57 AM 38.4481 -77.0311 41° Northeast 437 503 35,000 -700 Level Washington Center
Tue 08:51:58 AM 38.5411 -76.9294 41° Northeast 437 503 33,600 -1,388 Descending Washington Center
Tue 08:52:58 AM 38.6319 -76.8300 41° Northeast 437 503 32,200 -1,322 Descending Washington Center
Tue 08:53:56 AM 38.7225 -76.7278 41° Northeast 437 503 31,000 -678 Descending Washington Center
Tue 08:59:54 AM 39.2360 -76.1320 41° Northeast 100 115 27,500 -612 Descending FlightAware ADS-B
Tue 09:00:28 AM 39.2840 -76.0760 42° Northeast 429 494 27,000 -435 Descending FlightAware ADS-B
Tue 09:01:03 AM 39.3390 -76.0100 43° Northeast 431 496 27,000  Level FlightAware ADS-B
Tue 09:02:01 AM 39.4200 -75.9160 42° Northeast 434 499 27,000  Level FlightAware ADS-B
Tue 09:02:29 AM 39.4670 -75.8590 43° Northeast 433 498 27,000  Level FlightAware ADS-B
Tue 09:03:18 AM 39.5290 -75.7870 42° Northeast 433 498 27,000  Level FlightAware ADS-B
Tue 09:03:55 AM 39.5760 -75.7320 42° Northeast 433 498 27,000  Level FlightAware ADS-B
Tue 09:04:29 AM 39.6190 -75.6820 42° Northeast 433 498 27,000  Level FlightAware ADS-B
Tue 09:05:05 AM 39.6650 -75.6290 42° Northeast 433 498 27,000 -3,945 Level FlightAware ADS-B
Tue 09:05:42 AM 39.7370 -75.5390 44° Northeast 433 498 22,200 -3,945 Descending FlightAware ADS-B
Tue 09:06:18 AM 39.7820 -75.4860 42° Northeast 433 498 22,200  Level FlightAware ADS-B
Tue 09:06:55 AM 39.8290 -75.4310 42° Northeast 433 498 22,200  Level FlightAware ADS-B
Tue 09:07:31 AM 39.8750 -75.3780 41° Northeast 433 498 22,200  Level FlightAware ADS-B
Tue 09:08:07 AM 39.9200 -75.3240 43° Northeast 433 498 22,200  Level FlightAware ADS-B
Tue 09:08:55 AM 39.9810 -75.2530 42° Northeast 433 498 22,200 -5,345 Level FlightAware ADS-B
Tue 09:09:57 AM 40.0833 -75.1197 42° Northeast 367 422 12,400 -5,702 Descending Washington Center
Tue 09:10:56 AM 40.1456 -75.0406 44° Northeast 350 403 10,700 -1,618 Descending Washington Center
Tue 09:11:26 AM 40.1833 -75.0000 39° Northeast 292 336 10,000 -1,143 Descending New York TRACON
Tue 09:12:20 AM 40.2167 -74.9500 49° Northeast 278 320 9,100 -1,053 Descending New York TRACON
Tue 09:13:20 AM 40.2833 -74.8667 44° Northeast 279 321 8,000 -550 Descending New York TRACON
Tue 09:14:20 AM 40.3167 -74.7833 62° Northeast 283 326 8,000 -100 Level New York TRACON
Tue 09:15:20 AM 40.3500 -74.6833 66° East 279 321 7,800 -850 Descending New York TRACON
Tue 09:16:20 AM 40.3833 -74.6000 62° Northeast 272 313 6,300 -1,526 Descending New York TRACON
Tue 09:17:14 AM 40.4167 -74.5167 62° Northeast 272 313 4,900 -1,474 Descending New York TRACON
Tue 09:18:14 AM 40.4500 -74.4333 62° Northeast 263 303 3,500 -950 Descending New York TRACON
Tue 09:19:14 AM 40.4833 -74.3500 62° Northeast 255 293 3,000 -250 Descending New York TRACON
Tue 09:20:14 AM 40.5167 -74.2667 62° Northeast 259 298 3,000 -263 Level New York TRACON
Tue 09:21:08 AM 40.5667 -74.2333 27° Northeast 199 229 2,500 -737 Descending New York TRACON
Tue 09:22:08 AM 40.6167 -74.2167 14° North 132 152 1,600 -789 Descending New York TRACON
Tue 09:23:02 AM 40.6333 -74.2000 37° Northeast 126 145 1,000 -684 Descending New York TRACON
Tue 09:24:02 AM 40.6667 -74.1833 21° North 120 138 300 -700 Descending New York TRACON

Login

Don't have an account? Register now (free) for customized features, flight alerts, and more!